sensor_id;sensor_type;location;lat;lon;timestamp;temperature;humidity
14359;DHT22;7263;49.418;11.064;2023-05-07T00:00:07;11.50;99.90
14359;DHT22;7263;49.418;11.064;2023-05-07T00:02:37;11.50;99.90
14359;DHT22;7263;49.418;11.064;2023-05-07T00:05:09;11.60;99.90
14359;DHT22;7263;49.418;11.064;2023-05-07T00:07:39;11.60;99.90
14359;DHT22;7263;49.418;11.064;2023-05-07T00:10:10;11.60;99.90
14359;DHT22;7263;49.418;11.064;2023-05-07T00:12:37;11.60;99.90
14359;DHT22;7263;49.418;11.064;2023-05-07T00:15:09;11.60;99.90
14359;DHT22;7263;49.418;11.064;2023-05-07T00:17:38;11.60;99.90
14359;DHT22;7263;49.418;11.064;2023-05-07T00:22:46;11.70;99.90
14359;DHT22;7263;49.418;11.064;2023-05-07T00:25:18;11.70;99.90
14359;DHT22;7263;49.418;11.064;2023-05-07T00:27:46;11.80;99.90
14359;DHT22;7263;49.418;11.064;2023-05-07T00:30:16;11.80;99.90
14359;DHT22;7263;49.418;11.064;2023-05-07T00:32:46;11.80;99.90
14359;DHT22;7263;49.418;11.064;2023-05-07T00:35:14;11.90;99.90
14359;DHT22;7263;49.418;11.064;2023-05-07T00:37:41;8.40;99.90
14359;DHT22;7263;49.418;11.064;2023-05-07T00:40:10;11.90;99.90
14359;DHT22;7263;49.418;11.064;2023-05-07T00:42:37;11.90;99.90
14359;DHT22;7263;49.418;11.064;2023-05-07T00:45:07;11.90;99.90
14359;DHT22;7263;49.418;11.064;2023-05-07T00:47:38;12.00;99.90
14359;DHT22;7263;49.418;11.064;2023-05-07T00:50:17;12.00;99.90
14359;DHT22;7263;49.418;11.064;2023-05-07T00:52:46;12.00;99.90
14359;DHT22;7263;49.418;11.064;2023-05-07T00:55:21;12.00;99.90
14359;DHT22;7263;49.418;11.064;2023-05-07T00:57:49;12.00;99.90
14359;DHT22;7263;49.418;11.064;2023-05-07T01:00:16;12.00;99.90
14359;DHT22;7263;49.418;11.064;2023-05-07T01:02:45;12.00;99.90
14359;DHT22;7263;49.418;11.064;2023-05-07T01:05:17;12.00;99.90
14359;DHT22;7263;49.418;11.064;2023-05-07T01:07:51;12.00;99.90
14359;DHT22;7263;49.418;11.064;2023-05-07T01:12:50;12.00;99.90
14359;DHT22;7263;49.418;11.064;2023-05-07T01:15:21;12.00;99.90
14359;DHT22;7263;49.418;11.064;2023-05-07T01:17:54;12.00;99.90
14359;DHT22;7263;49.418;11.064;2023-05-07T01:20:28;12.00;99.90
14359;DHT22;7263;49.418;11.064;2023-05-07T01:23:02;12.00;99.90
14359;DHT22;7263;49.418;11.064;2023-05-07T01:25:31;12.00;99.90
14359;DHT22;7263;49.418;11.064;2023-05-07T01:27:58;12.00;99.90
14359;DHT22;7263;49.418;11.064;2023-05-07T01:30:28;12.00;99.90
14359;DHT22;7263;49.418;11.064;2023-05-07T01:33:01;12.00;99.90
14359;DHT22;7263;49.418;11.064;2023-05-07T01:35:36;12.00;99.90
14359;DHT22;7263;49.418;11.064;2023-05-07T01:38:11;12.10;99.90
14359;DHT22;7263;49.418;11.064;2023-05-07T01:40:38;12.10;99.90
14359;DHT22;7263;49.418;11.064;2023-05-07T01:43:09;12.10;99.90
14359;DHT22;7263;49.418;11.064;2023-05-07T01:45:36;12.10;99.90
14359;DHT22;7263;49.418;11.064;2023-05-07T01:48:07;12.10;99.90
14359;DHT22;7263;49.418;11.064;2023-05-07T01:50:35;12.10;99.90
14359;DHT22;7263;49.418;11.064;2023-05-07T01:53:08;12.10;99.90
14359;DHT22;7263;49.418;11.064;2023-05-07T01:55:39;12.10;99.90
14359;DHT22;7263;49.418;11.064;2023-05-07T02:00:34;12.00;99.90
14359;DHT22;7263;49.418;11.064;2023-05-07T02:03:06;12.00;99.90
14359;DHT22;7263;49.418;11.064;2023-05-07T02:05:39;11.90;99.90
14359;DHT22;7263;49.418;11.064;2023-05-07T02:08:08;11.90;99.90
14359;DHT22;7263;49.418;11.064;2023-05-07T02:10:40;11.90;99.90
14359;DHT22;7263;49.418;11.064;2023-05-07T02:13:09;11.90;99.90
14359;DHT22;7263;49.418;11.064;2023-05-07T02:15:36;11.90;99.90
14359;DHT22;7263;49.418;11.064;2023-05-07T02:18:06;11.80;99.90
14359;DHT22;7263;49.418;11.064;2023-05-07T02:20:36;11.80;99.90
14359;DHT22;7263;49.418;11.064;2023-05-07T02:25:34;11.80;99.90
14359;DHT22;7263;49.418;11.064;2023-05-07T02:28:05;11.70;99.90
14359;DHT22;7263;49.418;11.064;2023-05-07T02:30:32;11.70;99.90
14359;DHT22;7263;49.418;11.064;2023-05-07T02:35:30;11.60;99.90
14359;DHT22;7263;49.418;11.064;2023-05-07T02:42:56;11.50;99.90
14359;DHT22;7263;49.418;11.064;2023-05-07T02:45:41;11.50;99.90
14359;DHT22;7263;49.418;11.064;2023-05-07T02:53:03;11.30;99.90
14359;DHT22;7263;49.418;11.064;2023-05-07T02:55:31;11.20;99.90
14359;DHT22;7263;49.418;11.064;2023-05-07T02:58:04;11.10;99.90
14359;DHT22;7263;49.418;11.064;2023-05-07T03:00:32;11.10;99.90
14359;DHT22;7263;49.418;11.064;2023-05-07T03:07:56;10.90;99.90
14359;DHT22;7263;49.418;11.064;2023-05-07T03:10:26;10.90;99.90
14359;DHT22;7263;49.418;11.064;2023-05-07T03:15:22;10.80;99.90
14359;DHT22;7263;49.418;11.064;2023-05-07T03:17:53;10.70;99.90
14359;DHT22;7263;49.418;11.064;2023-05-07T03:22:50;10.60;99.90
14359;DHT22;7263;49.418;11.064;2023-05-07T03:25:20;10.70;99.90
14359;DHT22;7263;49.418;11.064;2023-05-07T03:32:44;10.60;99.90
14359;DHT22;7263;49.418;11.064;2023-05-07T03:35:12;10.50;99.90
14359;DHT22;7263;49.418;11.064;2023-05-07T03:37:39;10.50;99.90
14359;DHT22;7263;49.418;11.064;2023-05-07T03:40:09;10.50;99.90
14359;DHT22;7263;49.418;11.064;2023-05-07T03:42:37;10.50;99.90
14359;DHT22;7263;49.418;11.064;2023-05-07T03:45:07;10.40;99.90
14359;DHT22;7263;49.418;11.064;2023-05-07T03:47:44;10.40;99.90
14359;DHT22;7263;49.418;11.064;2023-05-07T03:50:12;10.40;99.90
14359;DHT22;7263;49.418;11.064;2023-05-07T03:52:42;10.40;99.90
14359;DHT22;7263;49.418;11.064;2023-05-07T03:55:09;10.40;99.90
14359;DHT22;7263;49.418;11.064;2023-05-07T03:57:38;10.40;99.90
14359;DHT22;7263;49.418;11.064;2023-05-07T04:00:13;10.30;99.90
14359;DHT22;7263;49.418;11.064;2023-05-07T04:02:40;10.30;99.90
14359;DHT22;7263;49.418;11.064;2023-05-07T04:07:41;10.30;99.90
14359;DHT22;7263;49.418;11.064;2023-05-07T04:10:10;10.30;99.90
14359;DHT22;7263;49.418;11.064;2023-05-07T04:12:38;10.30;99.90
14359;DHT22;7263;49.418;11.064;2023-05-07T04:15:07;10.30;99.90
14359;DHT22;7263;49.418;11.064;2023-05-07T04:17:39;10.30;99.90
14359;DHT22;7263;49.418;11.064;2023-05-07T04:20:09;10.40;99.90
14359;DHT22;7263;49.418;11.064;2023-05-07T04:22:40;10.50;99.90
14359;DHT22;7263;49.418;11.064;2023-05-07T04:25:16;10.60;99.90
14359;DHT22;7263;49.418;11.064;2023-05-07T04:27:42;10.60;99.90
14359;DHT22;7263;49.418;11.064;2023-05-07T04:30:10;10.70;99.90
14359;DHT22;7263;49.418;11.064;2023-05-07T04:32:43;10.80;99.90
14359;DHT22;7263;49.418;11.064;2023-05-07T04:35:10;11.00;99.90
14359;DHT22;7263;49.418;11.064;2023-05-07T04:37:47;11.00;99.90
14359;DHT22;7263;49.418;11.064;2023-05-07T04:40:19;11.10;99.90
14359;DHT22;7263;49.418;11.064;2023-05-07T04:42:45;11.20;99.90
14359;DHT22;7263;49.418;11.064;2023-05-07T04:45:32;11.30;99.90
14359;DHT22;7263;49.418;11.064;2023-05-07T04:48:02;11.50;99.90
14359;DHT22;7263;49.418;11.064;2023-05-07T04:50:29;11.50;99.90
14359;DHT22;7263;49.418;11.064;2023-05-07T04:53:00;11.60;99.90
14359;DHT22;7263;49.418;11.064;2023-05-07T04:55:35;11.70;99.90
14359;DHT22;7263;49.418;11.064;2023-05-07T04:58:08;11.90;99.90
14359;DHT22;7263;49.418;11.064;2023-05-07T05:00:38;12.00;99.90
14359;DHT22;7263;49.418;11.064;2023-05-07T05:03:06;12.10;99.90
14359;DHT22;7263;49.418;11.064;2023-05-07T05:05:33;12.20;99.90
14359;DHT22;7263;49.418;11.064;2023-05-07T05:08:06;12.40;99.90
14359;DHT22;7263;49.418;11.064;2023-05-07T05:10:38;12.50;99.90
14359;DHT22;7263;49.418;11.064;2023-05-07T05:13:12;12.60;99.90
14359;DHT22;7263;49.418;11.064;2023-05-07T05:15:43;12.80;99.90
14359;DHT22;7263;49.418;11.064;2023-05-07T05:18:11;12.90;99.90
14359;DHT22;7263;49.418;11.064;2023-05-07T05:20:40;13.10;99.90
14359;DHT22;7263;49.418;11.064;2023-05-07T05:23:12;13.30;99.90
14359;DHT22;7263;49.418;11.064;2023-05-07T05:25:39;13.40;99.90
14359;DHT22;7263;49.418;11.064;2023-05-07T05:28:11;13.60;99.90
14359;DHT22;7263;49.418;11.064;2023-05-07T05:30:42;13.70;99.90
14359;DHT22;7263;49.418;11.064;2023-05-07T05:33:08;13.80;99.90
14359;DHT22;7263;49.418;11.064;2023-05-07T05:35:35;13.90;99.90
14359;DHT22;7263;49.418;11.064;2023-05-07T05:38:10;13.90;99.90
14359;DHT22;7263;49.418;11.064;2023-05-07T05:40:41;14.00;99.90
14359;DHT22;7263;49.418;11.064;2023-05-07T05:43:08;14.00;99.90
14359;DHT22;7263;49.418;11.064;2023-05-07T05:45:43;14.00;99.90
14359;DHT22;7263;49.418;11.064;2023-05-07T05:48:09;13.90;99.90
14359;DHT22;7263;49.418;11.064;2023-05-07T05:50:42;13.90;99.90
14359;DHT22;7263;49.418;11.064;2023-05-07T05:53:09;13.90;99.90
14359;DHT22;7263;49.418;11.064;2023-05-07T05:55:42;13.90;99.90
14359;DHT22;7263;49.418;11.064;2023-05-07T05:58:12;13.90;99.90
14359;DHT22;7263;49.418;11.064;2023-05-07T06:00:40;13.90;99.90
14359;DHT22;7263;49.418;11.064;2023-05-07T06:03:07;14.00;99.90
14359;DHT22;7263;49.418;11.064;2023-05-07T06:05:34;14.00;99.90
14359;DHT22;7263;49.418;11.064;2023-05-07T06:08:01;14.10;99.90
14359;DHT22;7263;49.418;11.064;2023-05-07T06:10:30;13.90;99.90
14359;DHT22;7263;49.418;11.064;2023-05-07T06:13:01;14.00;99.90
14359;DHT22;7263;49.418;11.064;2023-05-07T06:15:30;14.10;99.90
14359;DHT22;7263;49.418;11.064;2023-05-07T06:17:57;14.00;99.90
14359;DHT22;7263;49.418;11.064;2023-05-07T06:20:23;14.10;99.90
14359;DHT22;7263;49.418;11.064;2023-05-07T06:22:50;14.20;99.90
14359;DHT22;7263;49.418;11.064;2023-05-07T06:25:17;14.30;99.90
14359;DHT22;7263;49.418;11.064;2023-05-07T06:27:44;14.30;99.90
14359;DHT22;7263;49.418;11.064;2023-05-07T06:30:15;14.40;99.90
14359;DHT22;7263;49.418;11.064;2023-05-07T06:32:49;14.50;99.90
14359;DHT22;7263;49.418;11.064;2023-05-07T06:35:22;14.60;99.90
14359;DHT22;7263;49.418;11.064;2023-05-07T06:37:51;14.70;99.90
14359;DHT22;7263;49.418;11.064;2023-05-07T06:40:21;14.70;99.90
14359;DHT22;7263;49.418;11.064;2023-05-07T06:42:48;15.30;99.90
14359;DHT22;7263;49.418;11.064;2023-05-07T06:45:25;15.00;99.90
14359;DHT22;7263;49.418;11.064;2023-05-07T06:48:00;15.00;99.90
14359;DHT22;7263;49.418;11.064;2023-05-07T06:50:30;15.10;99.90
14359;DHT22;7263;49.418;11.064;2023-05-07T06:52:57;15.10;99.90
14359;DHT22;7263;49.418;11.064;2023-05-07T06:55:23;15.10;99.90
14359;DHT22;7263;49.418;11.064;2023-05-07T06:57:51;15.20;99.90
14359;DHT22;7263;49.418;11.064;2023-05-07T07:00:18;15.40;99.90
14359;DHT22;7263;49.418;11.064;2023-05-07T07:02:50;15.80;99.90
14359;DHT22;7263;49.418;11.064;2023-05-07T07:05:16;16.40;99.90
14359;DHT22;7263;49.418;11.064;2023-05-07T07:07:46;16.50;99.90
14359;DHT22;7263;49.418;11.064;2023-05-07T07:10:18;16.70;99.90
14359;DHT22;7263;49.418;11.064;2023-05-07T07:12:44;16.70;99.90
14359;DHT22;7263;49.418;11.064;2023-05-07T07:15:13;16.70;99.90
14359;DHT22;7263;49.418;11.064;2023-05-07T07:17:40;16.70;99.90
14359;DHT22;7263;49.418;11.064;2023-05-07T07:20:09;16.80;99.90
14359;DHT22;7263;49.418;11.064;2023-05-07T07:22:39;17.00;99.90
14359;DHT22;7263;49.418;11.064;2023-05-07T07:25:06;17.20;99.90
14359;DHT22;7263;49.418;11.064;2023-05-07T07:27:33;17.20;99.90
14359;DHT22;7263;49.418;11.064;2023-05-07T07:30:00;17.30;99.90
14359;DHT22;7263;49.418;11.064;2023-05-07T07:32:33;17.50;99.90
14359;DHT22;7263;49.418;11.064;2023-05-07T07:35:03;17.80;99.90
14359;DHT22;7263;49.418;11.064;2023-05-07T07:37:34;17.80;99.90
14359;DHT22;7263;49.418;11.064;2023-05-07T07:40:04;18.00;99.90
14359;DHT22;7263;49.418;11.064;2023-05-07T07:42:31;18.20;99.90
14359;DHT22;7263;49.418;11.064;2023-05-07T07:44:58;18.10;99.90
14359;DHT22;7263;49.418;11.064;2023-05-07T07:47:29;18.20;99.90
14359;DHT22;7263;49.418;11.064;2023-05-07T07:49:56;18.10;99.90
14359;DHT22;7263;49.418;11.064;2023-05-07T07:52:23;18.00;99.90
14359;DHT22;7263;49.418;11.064;2023-05-07T07:54:51;17.90;99.90
14359;DHT22;7263;49.418;11.064;2023-05-07T07:57:18;17.80;99.90
14359;DHT22;7263;49.418;11.064;2023-05-07T07:59:48;17.90;99.90
14359;DHT22;7263;49.418;11.064;2023-05-07T08:02:20;17.90;99.90
14359;DHT22;7263;49.418;11.064;2023-05-07T08:05:00;18.00;99.90
14359;DHT22;7263;49.418;11.064;2023-05-07T08:07:27;18.20;99.90
14359;DHT22;7263;49.418;11.064;2023-05-07T08:09:55;18.20;99.90
14359;DHT22;7263;49.418;11.064;2023-05-07T08:12:22;18.30;99.90
14359;DHT22;7263;49.418;11.064;2023-05-07T08:14:49;18.40;99.90
14359;DHT22;7263;49.418;11.064;2023-05-07T08:17:16;18.50;99.90
14359;DHT22;7263;49.418;11.064;2023-05-07T08:19:47;18.70;99.90
14359;DHT22;7263;49.418;11.064;2023-05-07T08:22:14;18.80;99.90
14359;DHT22;7263;49.418;11.064;2023-05-07T08:24:50;19.10;99.90
14359;DHT22;7263;49.418;11.064;2023-05-07T08:27:18;19.30;99.90
14359;DHT22;7263;49.418;11.064;2023-05-07T08:29:46;19.60;99.90
14359;DHT22;7263;49.418;11.064;2023-05-07T08:32:16;19.80;99.90
14359;DHT22;7263;49.418;11.064;2023-05-07T08:34:43;20.00;99.90
14359;DHT22;7263;49.418;11.064;2023-05-07T08:37:10;20.00;99.90
14359;DHT22;7263;49.418;11.064;2023-05-07T08:39:39;20.10;99.90
14359;DHT22;7263;49.418;11.064;2023-05-07T08:42:13;20.50;99.90
14359;DHT22;7263;49.418;11.064;2023-05-07T08:44:46;20.80;99.90
14359;DHT22;7263;49.418;11.064;2023-05-07T08:47:16;21.20;99.90
14359;DHT22;7263;49.418;11.064;2023-05-07T08:49:42;21.70;99.90
14359;DHT22;7263;49.418;11.064;2023-05-07T08:52:11;22.00;99.90
14359;DHT22;7263;49.418;11.064;2023-05-07T08:54:46;18.90;99.90
14359;DHT22;7263;49.418;11.064;2023-05-07T08:57:19;22.00;99.90
14359;DHT22;7263;49.418;11.064;2023-05-07T08:59:51;22.10;99.90
14359;DHT22;7263;49.418;11.064;2023-05-07T09:02:20;22.40;99.90
14359;DHT22;7263;49.418;11.064;2023-05-07T09:04:48;22.40;99.90
14359;DHT22;7263;49.418;11.064;2023-05-07T09:07:16;22.10;99.90
14359;DHT22;7263;49.418;11.064;2023-05-07T09:09:44;21.60;99.90
14359;DHT22;7263;49.418;11.064;2023-05-07T09:12:11;18.30;99.90
14359;DHT22;7263;49.418;11.064;2023-05-07T09:14:38;21.90;99.90
14359;DHT22;7263;49.418;11.064;2023-05-07T09:17:06;22.50;99.90
14359;DHT22;7263;49.418;11.064;2023-05-07T09:19:36;22.70;99.90
14359;DHT22;7263;49.418;11.064;2023-05-07T09:22:04;22.50;99.90
14359;DHT22;7263;49.418;11.064;2023-05-07T09:24:32;22.40;99.90
14359;DHT22;7263;49.418;11.064;2023-05-07T09:27:02;23.30;99.90
14359;DHT22;7263;49.418;11.064;2023-05-07T09:29:31;23.20;99.90
14359;DHT22;7263;49.418;11.064;2023-05-07T09:32:01;23.30;99.90
14359;DHT22;7263;49.418;11.064;2023-05-07T09:34:30;23.50;99.90
14359;DHT22;7263;49.418;11.064;2023-05-07T09:37:00;23.80;99.90
14359;DHT22;7263;49.418;11.064;2023-05-07T09:39:45;23.70;99.90
14359;DHT22;7263;49.418;11.064;2023-05-07T09:42:14;24.10;99.90
14359;DHT22;7263;49.418;11.064;2023-05-07T09:44:43;24.30;99.90
14359;DHT22;7263;49.418;11.064;2023-05-07T09:47:15;23.60;99.90
14359;DHT22;7263;49.418;11.064;2023-05-07T09:49:47;23.40;99.90
14359;DHT22;7263;49.418;11.064;2023-05-07T09:52:23;23.20;99.90
14359;DHT22;7263;49.418;11.064;2023-05-07T09:54:50;23.30;99.90
14359;DHT22;7263;49.418;11.064;2023-05-07T09:57:22;23.70;99.90
14359;DHT22;7263;49.418;11.064;2023-05-07T09:59:51;23.90;99.90
14359;DHT22;7263;49.418;11.064;2023-05-07T10:02:27;24.00;99.90
14359;DHT22;7263;49.418;11.064;2023-05-07T10:05:00;23.30;99.90
14359;DHT22;7263;49.418;11.064;2023-05-07T10:07:28;23.30;99.90
14359;DHT22;7263;49.418;11.064;2023-05-07T10:09:57;23.40;99.90
14359;DHT22;7263;49.418;11.064;2023-05-07T10:12:29;23.70;99.90
14359;DHT22;7263;49.418;11.064;2023-05-07T10:15:04;24.00;99.90
14359;DHT22;7263;49.418;11.064;2023-05-07T10:17:36;24.00;99.90
14359;DHT22;7263;49.418;11.064;2023-05-07T10:20:08;24.10;99.90
14359;DHT22;7263;49.418;11.064;2023-05-07T10:22:45;24.00;99.90
14359;DHT22;7263;49.418;11.064;2023-05-07T10:25:17;25.00;99.90
14359;DHT22;7263;49.418;11.064;2023-05-07T10:27:46;25.00;99.90
14359;DHT22;7263;49.418;11.064;2023-05-07T10:30:22;25.60;99.90
14359;DHT22;7263;49.418;11.064;2023-05-07T10:32:55;25.90;99.90
14359;DHT22;7263;49.418;11.064;2023-05-07T10:35:26;27.40;99.90
14359;DHT22;7263;49.418;11.064;2023-05-07T10:37:58;24.60;99.90
14359;DHT22;7263;49.418;11.064;2023-05-07T10:40:28;24.30;99.90
14359;DHT22;7263;49.418;11.064;2023-05-07T10:42:56;24.50;99.90
14359;DHT22;7263;49.418;11.064;2023-05-07T10:45:29;24.60;99.90
14359;DHT22;7263;49.418;11.064;2023-05-07T10:48:07;24.70;99.90
14359;DHT22;7263;49.418;11.064;2023-05-07T10:50:44;24.50;99.90
14359;DHT22;7263;49.418;11.064;2023-05-07T10:53:31;24.60;99.90
14359;DHT22;7263;49.418;11.064;2023-05-07T10:56:26;24.80;99.90
14359;DHT22;7263;49.418;11.064;2023-05-07T10:59:41;25.20;99.90
14359;DHT22;7263;49.418;11.064;2023-05-07T11:02:11;25.10;99.30
14359;DHT22;7263;49.418;11.064;2023-05-07T11:04:40;24.80;99.00
14359;DHT22;7263;49.418;11.064;2023-05-07T11:07:28;24.40;98.80
14359;DHT22;7263;49.418;11.064;2023-05-07T11:10:04;24.00;99.30
14359;DHT22;7263;49.418;11.064;2023-05-07T11:13:03;23.70;99.00
14359;DHT22;7263;49.418;11.064;2023-05-07T11:15:40;23.50;99.60
14359;DHT22;7263;49.418;11.064;2023-05-07T11:18:11;23.20;99.90
14359;DHT22;7263;49.418;11.064;2023-05-07T11:21:03;23.30;99.90
14359;DHT22;7263;49.418;11.064;2023-05-07T11:26:48;23.80;99.90
14359;DHT22;7263;49.418;11.064;2023-05-07T11:29:19;24.30;99.90
14359;DHT22;7263;49.418;11.064;2023-05-07T11:31:49;24.60;99.90
14359;DHT22;7263;49.418;11.064;2023-05-07T11:34:23;24.60;99.90
14359;DHT22;7263;49.418;11.064;2023-05-07T11:36:53;24.20;99.90
14359;DHT22;7263;49.418;11.064;2023-05-07T11:39:24;23.50;99.90
14359;DHT22;7263;49.418;11.064;2023-05-07T11:41:57;23.20;99.90
14359;DHT22;7263;49.418;11.064;2023-05-07T11:44:40;23.40;99.90
14359;DHT22;7263;49.418;11.064;2023-05-07T11:47:10;23.40;99.90
14359;DHT22;7263;49.418;11.064;2023-05-07T11:49:39;23.20;99.90
14359;DHT22;7263;49.418;11.064;2023-05-07T11:54:37;23.20;99.90
14359;DHT22;7263;49.418;11.064;2023-05-07T11:57:14;23.00;99.90
14359;DHT22;7263;49.418;11.064;2023-05-07T11:59:47;23.00;99.90
14359;DHT22;7263;49.418;11.064;2023-05-07T12:02:14;22.70;99.90
14359;DHT22;7263;49.418;11.064;2023-05-07T12:04:44;22.40;99.90
14359;DHT22;7263;49.418;11.064;2023-05-07T12:07:11;22.20;99.90
14359;DHT22;7263;49.418;11.064;2023-05-07T12:09:42;22.70;99.90
14359;DHT22;7263;49.418;11.064;2023-05-07T12:12:10;22.00;99.90
14359;DHT22;7263;49.418;11.064;2023-05-07T12:14:46;22.10;99.90
14359;DHT22;7263;49.418;11.064;2023-05-07T12:17:14;22.10;99.90
14359;DHT22;7263;49.418;11.064;2023-05-07T12:19:43;22.10;99.90
14359;DHT22;7263;49.418;11.064;2023-05-07T12:22:19;22.20;99.90
14359;DHT22;7263;49.418;11.064;2023-05-07T12:24:47;22.30;99.90
14359;DHT22;7263;49.418;11.064;2023-05-07T12:27:16;22.40;99.90
14359;DHT22;7263;49.418;11.064;2023-05-07T12:29:44;22.40;99.90
14359;DHT22;7263;49.418;11.064;2023-05-07T12:32:13;22.40;99.90
14359;DHT22;7263;49.418;11.064;2023-05-07T12:34:42;21.10;99.90
14359;DHT22;7263;49.418;11.064;2023-05-07T12:37:08;22.40;99.90
14359;DHT22;7263;49.418;11.064;2023-05-07T12:39:44;22.50;99.90
14359;DHT22;7263;49.418;11.064;2023-05-07T12:42:16;22.60;99.90
14359;DHT22;7263;49.418;11.064;2023-05-07T12:44:46;22.60;99.90
14359;DHT22;7263;49.418;11.064;2023-05-07T12:47:21;22.60;99.90
14359;DHT22;7263;49.418;11.064;2023-05-07T12:49:50;22.70;99.90
14359;DHT22;7263;49.418;11.064;2023-05-07T12:52:20;22.70;99.90
14359;DHT22;7263;49.418;11.064;2023-05-07T12:54:47;22.60;99.90
14359;DHT22;7263;49.418;11.064;2023-05-07T12:57:19;22.50;99.90
14359;DHT22;7263;49.418;11.064;2023-05-07T12:59:46;22.40;99.90
14359;DHT22;7263;49.418;11.064;2023-05-07T13:02:13;22.60;99.90
14359;DHT22;7263;49.418;11.064;2023-05-07T13:04:41;22.70;99.90
14359;DHT22;7263;49.418;11.064;2023-05-07T13:07:08;22.60;99.90
14359;DHT22;7263;49.418;11.064;2023-05-07T13:09:37;22.60;99.90
14359;DHT22;7263;49.418;11.064;2023-05-07T13:12:04;22.60;99.90
14359;DHT22;7263;49.418;11.064;2023-05-07T13:14:33;22.70;99.90
14359;DHT22;7263;49.418;11.064;2023-05-07T13:16:59;22.70;99.90
14359;DHT22;7263;49.418;11.064;2023-05-07T13:19:26;22.50;99.90
14359;DHT22;7263;49.418;11.064;2023-05-07T13:21:53;22.50;99.90
14359;DHT22;7263;49.418;11.064;2023-05-07T13:24:20;22.50;99.90
14359;DHT22;7263;49.418;11.064;2023-05-07T13:26:46;22.50;99.90
14359;DHT22;7263;49.418;11.064;2023-05-07T13:29:16;22.60;99.90
14359;DHT22;7263;49.418;11.064;2023-05-07T13:31:47;22.70;99.90
14359;DHT22;7263;49.418;11.064;2023-05-07T13:34:20;22.60;99.70
14359;DHT22;7263;49.418;11.064;2023-05-07T13:36:47;22.70;99.90
14359;DHT22;7263;49.418;11.064;2023-05-07T13:39:13;22.50;99.90
14359;DHT22;7263;49.418;11.064;2023-05-07T13:41:41;22.50;99.90
14359;DHT22;7263;49.418;11.064;2023-05-07T13:44:07;22.50;99.90
14359;DHT22;7263;49.418;11.064;2023-05-07T13:46:37;22.40;99.90
14359;DHT22;7263;49.418;11.064;2023-05-07T13:49:08;22.40;99.90
14359;DHT22;7263;49.418;11.064;2023-05-07T13:51:39;22.40;99.90
14359;DHT22;7263;49.418;11.064;2023-05-07T13:54:08;22.30;99.90
14359;DHT22;7263;49.418;11.064;2023-05-07T13:56:47;22.30;99.90
14359;DHT22;7263;49.418;11.064;2023-05-07T13:59:17;22.20;99.90
14359;DHT22;7263;49.418;11.064;2023-05-07T14:01:55;22.20;99.90
14359;DHT22;7263;49.418;11.064;2023-05-07T14:04:23;22.30;99.90
14359;DHT22;7263;49.418;11.064;2023-05-07T14:06:55;22.20;99.90
14359;DHT22;7263;49.418;11.064;2023-05-07T14:09:28;22.30;99.90
14359;DHT22;7263;49.418;11.064;2023-05-07T14:11:55;22.30;99.90
14359;DHT22;7263;49.418;11.064;2023-05-07T14:14:21;22.40;99.90
14359;DHT22;7263;49.418;11.064;2023-05-07T14:17:06;22.40;99.90
14359;DHT22;7263;49.418;11.064;2023-05-07T14:19:35;22.20;99.90
14359;DHT22;7263;49.418;11.064;2023-05-07T14:22:03;22.00;99.90
14359;DHT22;7263;49.418;11.064;2023-05-07T14:24:33;21.90;99.90
14359;DHT22;7263;49.418;11.064;2023-05-07T14:27:03;21.90;99.90
14359;DHT22;7263;49.418;11.064;2023-05-07T14:29:30;21.80;99.90
14359;DHT22;7263;49.418;11.064;2023-05-07T14:32:04;21.90;99.90
14359;DHT22;7263;49.418;11.064;2023-05-07T14:34:37;21.90;99.90
14359;DHT22;7263;49.418;11.064;2023-05-07T14:37:17;22.00;99.90
14359;DHT22;7263;49.418;11.064;2023-05-07T14:39:49;22.10;99.90
14359;DHT22;7263;49.418;11.064;2023-05-07T14:42:16;21.90;99.90
14359;DHT22;7263;49.418;11.064;2023-05-07T14:44:43;22.20;99.90
14359;DHT22;7263;49.418;11.064;2023-05-07T14:47:10;22.00;99.90
14359;DHT22;7263;49.418;11.064;2023-05-07T14:49:44;21.90;99.90
14359;DHT22;7263;49.418;11.064;2023-05-07T14:52:11;21.80;99.90
14359;DHT22;7263;49.418;11.064;2023-05-07T14:54:43;21.80;99.90
14359;DHT22;7263;49.418;11.064;2023-05-07T14:57:10;21.80;99.90
14359;DHT22;7263;49.418;11.064;2023-05-07T14:59:41;21.80;99.90
14359;DHT22;7263;49.418;11.064;2023-05-07T15:02:21;21.80;99.90
14359;DHT22;7263;49.418;11.064;2023-05-07T15:04:55;21.80;99.90
14359;DHT22;7263;49.418;11.064;2023-05-07T15:07:27;21.70;99.90
14359;DHT22;7263;49.418;11.064;2023-05-07T15:09:54;21.70;99.90
14359;DHT22;7263;49.418;11.064;2023-05-07T15:12:25;21.60;99.90
14359;DHT22;7263;49.418;11.064;2023-05-07T15:14:52;21.50;99.90
14359;DHT22;7263;49.418;11.064;2023-05-07T15:17:18;21.50;99.90
14359;DHT22;7263;49.418;11.064;2023-05-07T15:19:45;21.60;99.90
14359;DHT22;7263;49.418;11.064;2023-05-07T15:22:27;21.50;99.90
14359;DHT22;7263;49.418;11.064;2023-05-07T15:24:56;21.50;99.90
14359;DHT22;7263;49.418;11.064;2023-05-07T15:27:26;21.50;99.90
14359;DHT22;7263;49.418;11.064;2023-05-07T15:29:53;21.50;99.90
14359;DHT22;7263;49.418;11.064;2023-05-07T15:32:20;21.50;99.90
14359;DHT22;7263;49.418;11.064;2023-05-07T15:34:50;21.50;99.90
14359;DHT22;7263;49.418;11.064;2023-05-07T15:37:19;21.60;99.90
14359;DHT22;7263;49.418;11.064;2023-05-07T15:39:47;21.60;99.90
14359;DHT22;7263;49.418;11.064;2023-05-07T15:42:14;21.70;99.90
14359;DHT22;7263;49.418;11.064;2023-05-07T15:44:43;21.70;99.90
14359;DHT22;7263;49.418;11.064;2023-05-07T15:47:14;21.60;99.90
14359;DHT22;7263;49.418;11.064;2023-05-07T15:49:44;21.60;99.90
14359;DHT22;7263;49.418;11.064;2023-05-07T15:52:13;21.50;99.90
14359;DHT22;7263;49.418;11.064;2023-05-07T15:54:50;21.50;99.90
14359;DHT22;7263;49.418;11.064;2023-05-07T15:57:17;21.40;99.90
14359;DHT22;7263;49.418;11.064;2023-05-07T15:59:54;21.30;99.90
14359;DHT22;7263;49.418;11.064;2023-05-07T16:02:28;21.30;99.90
14359;DHT22;7263;49.418;11.064;2023-05-07T16:04:57;21.30;99.90
14359;DHT22;7263;49.418;11.064;2023-05-07T16:07:32;21.30;99.90
14359;DHT22;7263;49.418;11.064;2023-05-07T16:10:05;21.20;99.90
14359;DHT22;7263;49.418;11.064;2023-05-07T16:12:32;21.20;99.90
14359;DHT22;7263;49.418;11.064;2023-05-07T16:15:02;21.20;99.90
14359;DHT22;7263;49.418;11.064;2023-05-07T16:17:32;21.10;99.90
14359;DHT22;7263;49.418;11.064;2023-05-07T16:20:05;21.10;99.90
14359;DHT22;7263;49.418;11.064;2023-05-07T16:22:33;21.00;99.90
14359;DHT22;7263;49.418;11.064;2023-05-07T16:25:07;21.00;99.90
14359;DHT22;7263;49.418;11.064;2023-05-07T16:27:34;21.00;99.90
14359;DHT22;7263;49.418;11.064;2023-05-07T16:30:04;20.90;99.90
14359;DHT22;7263;49.418;11.064;2023-05-07T16:32:31;20.90;99.90
14359;DHT22;7263;49.418;11.064;2023-05-07T16:35:00;20.90;99.90